aviador You're here:

LBGO Decoded Metar

GORNA ORECHOVICA in BULGARIA
Report Time2018-07-22 02:30:00
UTC Time2018-07-22 03:02:47
Flight Rules vfr VFR
WindCalm
Visibility9999 m
Phenomena:Light Shower Rain
Mist
Clouds:N/A
CeilingNone
Temp16°C (ISA +2)
Dew Point16°C (100% RH)
QNH1011 hPa
Density Alt781 ft
Elevation285 ft
Report Wrong Elevation
Raw Report
METAR LBGO 220230Z AUTO 00000KT 9999 -SHRA BR NCD 16/16 Q1011=

Extra information for LBGO:More info

Metar Taf Metar & Taf Last 4 Metars F.Rules Stats Wind Profile Meteogram Temp Stats Airport Information Weather charts Add Link Nearby VenuesMetar ALERT Operation Metar Decoded Social comments